Denys Shevchenko

Chefscout - Inhulets
19 Aug 2027
Donnerstag
Verarbeitung

Persönlichkeit

Anpassungsfähigkeit (1) Ehrgeiz (17) Kontroverse (17) Loyalität (3) Druck (13) Professionalität (12) Fairness (10) Temperament (8)

Profil

Trainerstil Demokratisch
Lizenz Kontinentale A
Entschlossenheit 5
Menschenführung 8
Motivation 2
Disziplin 8
Arbeitszufriedenheit
62%
Ermüdung
0%
Rolle Chefscout
Gehalt 13.2K p/W
Vertrag 14.03.2028

Leistung

Verhalten Gut
Trainingseffektivität
18%
Spielerentwicklung
45%
Verletzungsprävention
10%
Taktische Umsetzung
40%

Letzte Ereignisse

Nahm an einer Scouting-Besprechung teil 14T her
Nahm an einer Scouting-Besprechung teil 14T her
Sprach sich gegen ein Transferziel aus 21T her
Nahm an einer Scouting-Besprechung teil 21T her
Nahm an einer Scouting-Besprechung teil 21T her
Nahm an einer Scouting-Besprechung teil 21T her
Nahm an einer Scouting-Besprechung teil 21T her
Nahm an einer Scouting-Besprechung teil 21T her

Aktuell beobachtet

86
Spieler Verein Status Fähigkeit Vertrauen Beobachtet Zuletzt beobachtet Letzte Stimme
Gastón Fernández Chacarita Juniors Aktiv 101 / 93 40% 1 13.06.2027 -
Vitalii Zhupanskyi Feniks Aktiv 81 / 85 40% 1 13.06.2027 -
Riccardo Gagno Vicenza Aktiv 121 / 126 40% 1 11.06.2027 -
Luca Martelli Forli Aktiv 103 / 99 40% 1 11.06.2027 -
Oleh Bilyk Epicentr Abgelehnt 101 / 115 40% 1 10.06.2027 Mehr Infos nötig
Alfie Whiteman Newport County Aktiv 98 / 116 40% 1 10.06.2027 -
Cristopher Varela Deportivo La Guaira Abgelehnt 121 / 115 40% 1 09.06.2027 Mehr Infos nötig
Emmanuel Gómez Riga Alvarado Abgelehnt 115 / 107 40% 1 09.06.2027 Mehr Infos nötig
Renzo Bacchia Racing Abgelehnt 123 / 117 40% 1 07.06.2027 Mehr Infos nötig
Gianluca Saro Foggia Abgelehnt 100 / 121 40% 1 07.06.2027 Mehr Infos nötig
Vladyslav Savitskiy Victoriia Sumy Aktiv 65 / 76 58% 1 29.01.2027 Befürworten
Robert Mizo Ashanti Gold Aktiv 104 / 102 40% 3 24.01.2027 -
Jonathan Gyan Liberty Professionals Aktiv 93 / 77 40% 2 24.01.2027 -
Kostiantyn Bychek Kudrivka Aktiv 88 / 99 40% 3 22.01.2027 -
Gabriel Goulart UCSA Aktiv 84 / 70 40% 3 22.01.2027 -
Vasyl Lutsiv Metalist Aktiv 74 / 92 40% 1 18.01.2027 -
Vasyl Tsiutsiura Prykarpattia Aktiv 81 / 74 40% 2 17.01.2027 -
Mark Assinor LNZ Aktiv 111 / 102 40% 2 17.01.2027 -
Danyil Alefirenko Chornomorets Aktiv 105 / 104 40% 5 16.01.2027 -
Lamine Diakité Djoliba Aktiv 91 / 103 40% 1 14.01.2027 -
Ismaïl Ouro-Agoro Al Gaish Aktiv 87 / 116 40% 2 13.01.2027 -
Shokry Naguib Arab Contractors Aktiv 95 / 117 40% 1 13.01.2027 -
Diamanka Senghor Mosta Aktiv 89 / 78 40% 1 12.01.2027 -
Tedi Cara LNZ Aktiv 104 / 125 40% 5 09.01.2027 -
Julien Lamy Lokomotiv Plovdiv Aktiv 107 / 111 40% 2 08.01.2027 -
Kwame Opoku Asante Kotoko Aktiv 88 / 116 40% 1 07.01.2027 -
Yeangel Montero Naxxar Lions Aktiv 106 / 94 40% 1 07.01.2027 -
Alagie Wally Veres Aktiv 95 / 92 40% 2 03.01.2027 -
Barna Tóth Paksi Aktiv 112 / 115 40% 1 03.01.2027 -
Bruno Gomes Valletta Aktiv 109 / 80 40% 1 02.01.2027 -
Lukáš Juliš MSK Zilina Aktiv 111 / 112 40% 1 01.01.2027 -
Ádin Molnár MTK Budapest Aktiv 99 / 104 40% 1 01.01.2027 -
Denys Rezepov Nyva Aktiv 84 / 85 40% 1 28.12.2026 -
Seidu Basit Aigle Royal de Moungo Aktiv 86 / 89 40% 1 27.12.2026 -
Danylo Honcharuk Probiy Aktiv 92 / 78 40% 1 26.12.2026 -
Ahmet Arslan Slavia Sofia Aktiv 109 / 101 40% 2 22.12.2026 -
Rodrigo Soria Vorskla Aktiv 83 / 82 40% 2 21.12.2026 -
Robert Murić Floriana Aktiv 120 / 97 40% 1 21.12.2026 -
Ihor Krasnopir Polissia Aktiv 117 / 130 40% 7 20.12.2026 -
Nazariy Rusyn Karpaty Aktiv 109 / 115 40% 2 17.12.2026 -
Oto John ES Mostaganem Aktiv 94 / 85 40% 3 17.12.2026 -
Sergio González Racing Aktiv 108 / 118 40% 1 15.12.2026 -
Agustín Módica Gimnasia y Esgrima Aktiv 111 / 131 40% 1 13.12.2026 -
Oleh Kozhushko Bukovyna Aktiv 106 / 105 40% 2 07.12.2026 -
Róbert Polievka MTK Budapest Aktiv 112 / 102 40% 1 07.12.2026 -
Uroš Đuranović Sliema Wanderers Aktiv 86 / 88 40% 1 04.12.2026 -
Papa Ndiaga Yade Oleksandriya Aktiv 101 / 116 40% 2 02.12.2026 -
Kahraba ENPPI Aktiv 127 / 92 40% 1 02.12.2026 -
Franklin Sasere Birkirkara Aktiv 109 / 74 40% 1 30.11.2026 -
Hansel Zapata Botev Plovdiv Aktiv 114 / 102 40% 5 29.11.2026 -
Andrii Riznyk Ahrobiznes Aktiv 81 / 87 40% 1 27.11.2026 -
Axel Pérez NK Domzale Aktiv 96 / 113 40% 1 27.11.2026 -
Milan Tučić ND Gorica Aktiv 98 / 99 40% 1 25.11.2026 -
Mohammed Yahaya Great Olympics Aktiv 68 / 83 40% 1 21.11.2026 -
Pedro Cejas Zabbar St. Patrick Aktiv 89 / 108 40% 1 19.11.2026 -
Martin Petkov Botev Vratsa Aktiv 88 / 112 40% 1 19.11.2026 -
Yaw Mensah Hasaacas Aktiv 73 / 69 40% 1 18.11.2026 -
Danylo Knysh Victoriia Sumy Aktiv 81 / 87 40% 1 18.11.2026 -
Maksym Hirnyi Probiy Aktiv 95 / 99 40% 2 16.11.2026 -
Ieltsin Camões Tromso Aktiv 97 / 115 40% 1 15.11.2026 -
Nazar Voloshyn Livyi Bereh Aktiv 96 / 95 40% 1 15.11.2026 -
Gabriel Bravo Hearts of Oak Aktiv 114 / 107 40% 2 09.11.2026 -
Isaac Matondo Koper Aktiv 98 / 104 40% 1 09.11.2026 -
Mykola Haiduchyk Polissia Aktiv 118 / 103 40% 1 08.11.2026 -
Andreas Gruber DAC Dunajska Streda Aktiv 118 / 116 40% 1 29.10.2026 -
Andrii Novikov Chernihiv Aktiv 77 / 78 40% 1 26.10.2026 -
Maclyn Biokpo Jenewari Rivers United Aktiv 90 / 107 40% 1 26.10.2026 -
Damir Céter Hamrun Spartans Aktiv 85 / 104 40% 2 23.10.2026 -
Volodymyr Odariuk Poltava Aktiv 98 / 108 40% 2 22.10.2026 -
Gaspar Duarte Rosario Central Aktiv 110 / 130 40% 1 21.10.2026 -
Dmytro Shcherbak Metalist Aktiv 103 / 101 40% 1 18.10.2026 -
Alex Chidomere Vorskla Aktiv 97 / 89 40% 1 16.10.2026 -
Wendell Livyi Bereh Aktiv 88 / 101 40% 1 16.10.2026 -
Dmytro Shastal Livyi Bereh Aktiv 110 / 110 40% 1 15.10.2026 -
Myroslav Trofymiuk Prykarpattia Aktiv 88 / 95 40% 1 14.10.2026 -
Artur Amroziński Chernihiv Abgelehnt 74 / 92 40% 1 13.10.2026 Mehr Infos nötig
Jorge Padilla Cherno More Aktiv 95 / 94 40% 1 12.10.2026 -
Salah Mohsen El Masry Aktiv 112 / 103 40% 1 11.10.2026 -
Richard Celis Zamora Aktiv 114 / 102 40% 1 06.10.2026 -
Danylo Kravchuk LNZ Aktiv 100 / 109 40% 1 05.10.2026 -
Umar Ada Nasarawa United Aktiv 73 / 79 40% 1 05.10.2026 -
Denys Ustymenko Obolon Aktiv 91 / 104 40% 1 08.09.2026 -
Nicolás Contín MFK Ruzomberok Aktiv 117 / 128 40% 1 08.09.2026 -
Tymur Butenko Kryvbas Aktiv 66 / 77 58% 1 17.08.2026 -
Yurii Mykhayliv Nyva Abgelehnt 70 / 89 58% 1 10.08.2026 Ablehnen
Adalberto Peñaranda Deportivo Tachira Aktiv 121 / 109 40% 1 05.08.2026 -